createdAt,value
2018-09-15T00:00:58.580Z,99.9
2018-09-15T00:02:05.792Z,99.9
2018-09-15T00:03:13.006Z,99.9
2018-09-15T00:04:20.219Z,99.9
2018-09-15T00:05:27.431Z,99.9
2018-09-15T00:06:34.644Z,99.9
2018-09-15T00:07:41.857Z,99.9
2018-09-15T00:08:49.075Z,99.9
2018-09-15T00:09:56.018Z,99.9
2018-09-15T00:11:03.234Z,99.9
2018-09-15T00:12:10.449Z,99.9
2018-09-15T00:13:17.664Z,99.9
2018-09-15T00:14:24.884Z,99.9
2018-09-15T00:15:31.879Z,99.9
2018-09-15T00:16:39.094Z,99.9
2018-09-15T00:17:46.317Z,99.9
2018-09-15T00:18:53.566Z,99.9
2018-09-15T00:20:00.778Z,99.9
2018-09-15T00:21:07.997Z,99.9
2018-09-15T00:22:15.217Z,99.9
2018-09-15T00:23:22.433Z,99.9
2018-09-15T00:24:29.645Z,99.9
2018-09-15T00:25:36.864Z,99.9
2018-09-15T00:26:44.081Z,99.9
2018-09-15T00:27:51.295Z,99.9
2018-09-15T00:28:58.510Z,99.9
2018-09-15T00:30:05.442Z,99.9
2018-09-15T00:31:12.385Z,99.9
2018-09-15T00:32:19.603Z,99.9
2018-09-15T00:33:26.810Z,99.9
2018-09-15T00:34:34.025Z,99.9
2018-09-15T00:35:40.979Z,99.9
2018-09-15T00:36:48.181Z,99.9
2018-09-15T00:37:55.401Z,99.9
2018-09-15T00:39:02.719Z,99.9
2018-09-15T00:40:10.013Z,99.9
2018-09-15T00:41:16.960Z,99.9
2018-09-15T00:42:24.171Z,99.9
2018-09-15T00:43:31.398Z,99.9
2018-09-15T00:44:38.640Z,99.9
2018-09-15T00:45:45.848Z,99.9
2018-09-15T00:46:53.059Z,99.9
2018-09-15T00:48:00.275Z,99.9
2018-09-15T00:49:07.494Z,99.9
2018-09-15T00:50:14.706Z,99.9
2018-09-15T00:51:21.921Z,99.9
2018-09-15T00:52:29.128Z,99.9
2018-09-15T00:53:36.338Z,99.9
2018-09-15T00:54:43.554Z,99.9
2018-09-15T00:55:50.766Z,99.9
2018-09-15T00:56:57.979Z,99.9
2018-09-15T00:58:05.199Z,99.9
2018-09-15T00:59:12.415Z,99.9
2018-09-15T01:00:19.631Z,99.9
2018-09-15T01:01:26.848Z,99.9
2018-09-15T01:02:34.059Z,99.9
2018-09-15T01:03:41.292Z,99.9
2018-09-15T01:04:48.501Z,99.9
2018-09-15T01:05:55.712Z,99.9
2018-09-15T01:07:02.922Z,99.9
2018-09-15T01:08:10.141Z,99.9
2018-09-15T01:09:17.354Z,99.9
2018-09-15T01:10:24.562Z,99.9
2018-09-15T01:11:31.779Z,99.9
2018-09-15T01:12:38.990Z,99.9
2018-09-15T01:13:46.207Z,99.9
2018-09-15T01:14:53.136Z,99.9
2018-09-15T01:16:00.362Z,99.9
2018-09-15T01:17:07.577Z,99.9
2018-09-15T01:18:14.522Z,99.9
2018-09-15T01:19:21.731Z,99.9
2018-09-15T01:20:28.951Z,99.9
2018-09-15T01:21:36.169Z,99.9
2018-09-15T01:22:43.386Z,99.9
2018-09-15T01:23:50.609Z,99.9
2018-09-15T01:24:57.824Z,99.9
2018-09-15T01:26:05.090Z,99.9
2018-09-15T01:27:12.742Z,99.9
2018-09-15T01:28:19.951Z,99.9
2018-09-15T01:29:26.893Z,99.9
2018-09-15T01:30:34.106Z,99.9
2018-09-15T01:31:41.318Z,99.9
2018-09-15T01:32:48.558Z,99.9
2018-09-15T01:33:55.768Z,99.9
2018-09-15T01:35:02.705Z,99.9
2018-09-15T01:36:09.914Z,99.9
2018-09-15T01:37:17.159Z,99.9
2018-09-15T01:38:24.378Z,99.9
2018-09-15T01:39:31.593Z,99.9
2018-09-15T01:40:38.841Z,99.9
2018-09-15T01:41:46.057Z,99.9
2018-09-15T01:42:53.267Z,99.9
2018-09-15T01:44:00.203Z,99.9
2018-09-15T01:45:07.415Z,99.9
2018-09-15T01:46:14.641Z,99.9
2018-09-15T01:47:21.857Z,99.9
2018-09-15T01:48:29.065Z,99.9
2018-09-15T01:49:36.011Z,99.9
2018-09-15T01:50:43.224Z,99.9
2018-09-15T01:51:50.165Z,99.9
2018-09-15T01:52:57.407Z,99.9
2018-09-15T01:54:04.609Z,99.9
2018-09-15T01:55:11.841Z,99.9
2018-09-15T01:56:19.051Z,99.9
2018-09-15T01:57:26.007Z,99.9
2018-09-15T01:58:33.354Z,99.9
2018-09-15T01:59:40.565Z,99.9
2018-09-15T02:00:47.779Z,99.9
2018-09-15T02:01:54.724Z,99.9
2018-09-15T02:03:01.662Z,99.9
2018-09-15T02:04:08.871Z,99.9
2018-09-15T02:05:16.088Z,99.9
2018-09-15T02:06:23.028Z,99.9
2018-09-15T02:07:30.247Z,99.9
2018-09-15T02:08:37.453Z,99.9
2018-09-15T02:09:44.667Z,99.9
2018-09-15T02:10:51.881Z,99.9
2018-09-15T02:11:59.097Z,99.9
2018-09-15T02:13:06.031Z,99.9
2018-09-15T02:14:13.245Z,99.9
2018-09-15T02:15:20.452Z,99.9
2018-09-15T02:16:27.667Z,99.9
2018-09-15T02:17:34.877Z,99.9
2018-09-15T02:18:42.091Z,99.9
2018-09-15T02:19:49.298Z,99.9
2018-09-15T02:20:56.518Z,99.9
2018-09-15T02:22:03.730Z,99.9
2018-09-15T02:23:10.942Z,99.9
2018-09-15T02:24:18.157Z,99.9
2018-09-15T02:25:25.377Z,99.9
2018-09-15T02:26:32.590Z,99.9
2018-09-15T02:27:39.800Z,99.9
2018-09-15T02:28:47.031Z,99.9
2018-09-15T02:29:54.285Z,99.9
2018-09-15T02:31:01.497Z,99.9
2018-09-15T02:32:08.705Z,99.9
2018-09-15T02:33:15.915Z,99.9
2018-09-15T02:34:23.135Z,99.9
2018-09-15T02:35:30.352Z,99.9
2018-09-15T02:36:37.560Z,99.9
2018-09-15T02:37:44.769Z,99.9
2018-09-15T02:38:51.984Z,99.9
2018-09-15T02:39:59.197Z,99.9
2018-09-15T02:41:06.414Z,99.9
2018-09-15T02:42:13.635Z,99.9
2018-09-15T02:43:20.836Z,99.9
2018-09-15T02:44:27.853Z,99.9
2018-09-15T02:45:35.044Z,99.9
2018-09-15T02:46:42.261Z,99.9
2018-09-15T02:47:49.190Z,99.9
2018-09-15T02:48:56.401Z,99.9
2018-09-15T02:50:03.613Z,99.9
2018-09-15T02:51:10.554Z,99.9
2018-09-15T02:52:17.766Z,99.9
2018-09-15T02:53:25.005Z,99.9
2018-09-15T02:54:32.218Z,99.9
2018-09-15T02:55:39.449Z,99.9
2018-09-15T02:56:46.658Z,99.9
2018-09-15T02:57:53.868Z,99.9
2018-09-15T02:59:01.088Z,99.9
2018-09-15T03:00:08.295Z,99.9
2018-09-15T03:01:15.513Z,99.9
2018-09-15T03:02:22.727Z,99.9
2018-09-15T03:03:29.933Z,99.9
2018-09-15T03:04:37.148Z,99.9
2018-09-15T03:05:44.359Z,99.9
2018-09-15T03:06:51.567Z,99.9
2018-09-15T03:07:58.517Z,99.9
2018-09-15T03:09:05.729Z,99.9
2018-09-15T03:10:12.940Z,99.9
2018-09-15T03:11:20.147Z,99.9
2018-09-15T03:12:27.088Z,99.9
2018-09-15T03:13:34.294Z,99.9
2018-09-15T03:14:41.505Z,99.9
2018-09-15T03:15:48.449Z,99.9
2018-09-15T03:16:55.661Z,99.9
2018-09-15T03:18:02.867Z,99.9
2018-09-15T03:19:10.078Z,99.9
2018-09-15T03:20:17.290Z,99.9
2018-09-15T03:21:24.503Z,99.9
2018-09-15T03:22:31.714Z,99.9
2018-09-15T03:23:38.924Z,99.9
2018-09-15T03:24:46.138Z,99.9
2018-09-15T03:25:53.348Z,99.9
2018-09-15T03:27:00.556Z,99.9
2018-09-15T03:28:07.766Z,99.9
2018-09-15T03:29:14.976Z,99.9
2018-09-15T03:30:22.207Z,99.9
2018-09-15T03:31:29.404Z,99.9
2018-09-15T03:32:36.653Z,99.9
2018-09-15T03:33:43.873Z,99.9
2018-09-15T03:34:51.082Z,99.9
2018-09-15T03:35:58.292Z,99.9
2018-09-15T03:37:05.507Z,99.9
2018-09-15T03:38:12.718Z,99.9
2018-09-15T03:39:19.662Z,99.9
2018-09-15T03:40:26.860Z,99.9
2018-09-15T03:41:34.177Z,99.9
2018-09-15T03:42:41.666Z,99.9
2018-09-15T03:43:48.874Z,99.9
2018-09-15T03:44:56.103Z,99.9
2018-09-15T03:46:02.751Z,99.9
2018-09-15T03:47:09.964Z,99.9
2018-09-15T03:48:17.183Z,99.9
2018-09-15T03:49:24.393Z,99.9
2018-09-15T03:50:31.662Z,99.9
2018-09-15T03:51:38.864Z,99.9
2018-09-15T03:52:46.072Z,99.9
2018-09-15T03:53:53.280Z,99.9
2018-09-15T03:55:00.499Z,99.9
2018-09-15T03:56:07.715Z,99.9
2018-09-15T03:57:14.926Z,99.9
2018-09-15T03:58:22.175Z,99.9
2018-09-15T03:59:29.397Z,99.9
2018-09-15T04:00:36.616Z,99.9
2018-09-15T04:01:43.835Z,99.9
2018-09-15T04:02:51.048Z,99.9
2018-09-15T04:03:58.260Z,99.9
2018-09-15T04:05:05.473Z,99.9
2018-09-15T04:06:12.411Z,99.9
2018-09-15T04:07:19.350Z,99.9
2018-09-15T04:08:26.561Z,99.9
2018-09-15T04:09:33.772Z,99.9
2018-09-15T04:10:40.984Z,99.9
2018-09-15T04:11:48.195Z,99.9
2018-09-15T04:12:55.407Z,99.9
2018-09-15T04:14:02.619Z,99.9
2018-09-15T04:15:09.558Z,99.9
2018-09-15T04:16:16.779Z,99.9
2018-09-15T04:17:23.990Z,99.9
2018-09-15T04:18:31.195Z,99.9
2018-09-15T04:19:38.128Z,99.9
2018-09-15T04:20:45.339Z,99.9
2018-09-15T04:21:52.553Z,99.9
2018-09-15T04:22:59.766Z,99.9
2018-09-15T04:24:06.975Z,99.9
2018-09-15T04:25:14.185Z,99.9
2018-09-15T04:26:21.405Z,99.9
2018-09-15T04:27:28.612Z,99.9
2018-09-15T04:28:35.828Z,99.9
2018-09-15T04:29:43.491Z,99.9
2018-09-15T04:30:50.699Z,99.9
2018-09-15T04:31:57.919Z,99.9
2018-09-15T04:33:05.273Z,99.9
2018-09-15T04:34:12.482Z,99.9
2018-09-15T04:35:19.684Z,99.9
2018-09-15T04:36:26.898Z,99.9
2018-09-15T04:37:33.556Z,99.9
2018-09-15T04:38:40.766Z,99.9
2018-09-15T04:39:47.993Z,99.9
2018-09-15T04:40:54.930Z,99.9
2018-09-15T04:42:01.873Z,99.9
2018-09-15T04:43:09.084Z,99.9
2018-09-15T04:44:16.294Z,99.9
2018-09-15T04:45:23.502Z,99.9
2018-09-15T04:46:30.713Z,99.9
2018-09-15T04:47:37.922Z,99.9
2018-09-15T04:48:45.140Z,99.9
2018-09-15T04:49:52.075Z,99.9
2018-09-15T04:50:59.290Z,99.9
2018-09-15T04:52:06.507Z,99.9
2018-09-15T04:53:13.719Z,99.9
2018-09-15T04:54:20.928Z,99.9
2018-09-15T04:55:28.134Z,99.9
2018-09-15T04:56:35.353Z,99.9
2018-09-15T04:57:42.557Z,99.9
2018-09-15T04:58:49.896Z,99.9
2018-09-15T04:59:57.600Z,99.9
2018-09-15T05:01:04.811Z,99.9
2018-09-15T05:02:12.028Z,99.9
2018-09-15T05:03:18.963Z,99.9
2018-09-15T05:04:26.180Z,99.9
2018-09-15T05:05:33.389Z,99.9
2018-09-15T05:06:40.633Z,99.9
2018-09-15T05:07:48.291Z,99.9
2018-09-15T05:08:55.498Z,99.9
2018-09-15T05:10:02.712Z,99.9
2018-09-15T05:11:09.922Z,99.9
2018-09-15T05:12:17.148Z,99.9
2018-09-15T05:13:24.393Z,99.9
2018-09-15T05:14:31.599Z,99.9
2018-09-15T05:15:38.531Z,99.9
2018-09-15T05:16:45.757Z,99.9
2018-09-15T05:17:52.965Z,99.9
2018-09-15T05:19:00.176Z,99.9
2018-09-15T05:20:07.111Z,99.9
2018-09-15T05:21:14.324Z,99.9
2018-09-15T05:22:21.542Z,99.9
2018-09-15T05:23:28.745Z,99.9
2018-09-15T05:24:35.956Z,99.9
2018-09-15T05:25:43.165Z,99.9
2018-09-15T05:26:50.375Z,99.9
2018-09-15T05:27:57.587Z,99.9
2018-09-15T05:29:04.794Z,99.9
2018-09-15T05:30:12.015Z,99.9
2018-09-15T05:31:19.223Z,99.9
2018-09-15T05:32:26.447Z,99.9
2018-09-15T05:33:33.381Z,99.9
2018-09-15T05:34:40.591Z,99.9
2018-09-15T05:35:47.799Z,99.9
2018-09-15T05:36:55.015Z,99.9
2018-09-15T05:38:02.229Z,99.9
2018-09-15T05:39:09.441Z,99.9
2018-09-15T05:40:16.369Z,99.9
2018-09-15T05:41:23.581Z,99.9
2018-09-15T05:42:30.823Z,99.9
2018-09-15T05:43:38.031Z,99.9
2018-09-15T05:44:45.247Z,99.9
2018-09-15T05:45:52.464Z,99.9
2018-09-15T05:46:59.413Z,99.9
2018-09-15T05:48:06.629Z,99.9
2018-09-15T05:49:13.567Z,99.9
2018-09-15T05:50:20.777Z,99.9
2018-09-15T05:51:27.991Z,99.9
2018-09-15T05:52:35.208Z,99.9
2018-09-15T05:53:42.419Z,99.9
2018-09-15T05:54:49.630Z,99.9
2018-09-15T05:55:56.883Z,99.9
2018-09-15T05:57:04.145Z,99.9
2018-09-15T05:58:11.355Z,99.9
2018-09-15T05:59:18.566Z,99.9
2018-09-15T06:00:25.841Z,99.9
2018-09-15T06:01:32.939Z,99.9
2018-09-15T06:02:39.964Z,99.9
2018-09-15T06:03:46.903Z,99.9
2018-09-15T06:04:54.113Z,99.9
2018-09-15T06:06:01.342Z,99.9
2018-09-15T06:07:08.573Z,99.9
2018-09-15T06:08:15.784Z,99.9
2018-09-15T06:09:22.998Z,99.9
2018-09-15T06:10:29.934Z,99.9
2018-09-15T06:11:37.155Z,99.9
2018-09-15T06:12:44.371Z,99.9
2018-09-15T06:13:51.694Z,99.9
2018-09-15T06:14:59.149Z,99.9
2018-09-15T06:16:06.362Z,99.9
2018-09-15T06:17:13.571Z,99.9
2018-09-15T06:18:20.790Z,99.9
2018-09-15T06:19:28.014Z,99.9
2018-09-15T06:20:35.231Z,99.9
2018-09-15T06:21:42.444Z,99.9
2018-09-15T06:22:49.391Z,99.9
2018-09-15T06:23:56.600Z,99.9
2018-09-15T06:25:03.808Z,99.9
2018-09-15T06:26:11.031Z,99.9
2018-09-15T06:27:17.973Z,99.9
2018-09-15T06:28:24.914Z,99.9
2018-09-15T06:29:32.127Z,99.9
2018-09-15T06:30:39.347Z,99.9
2018-09-15T06:31:46.566Z,99.9
2018-09-15T06:32:53.778Z,99.9
2018-09-15T06:34:00.998Z,99.9
2018-09-15T06:35:08.211Z,99.9
2018-09-15T06:36:15.467Z,99.9
2018-09-15T06:37:22.705Z,99.9
2018-09-15T06:38:29.912Z,99.9
2018-09-15T06:39:37.121Z,99.9
2018-09-15T06:40:44.060Z,99.9
2018-09-15T06:41:51.281Z,99.9
2018-09-15T06:42:58.496Z,99.9
2018-09-15T06:44:05.706Z,99.9
2018-09-15T06:45:12.918Z,99.9
2018-09-15T06:46:20.135Z,99.9
2018-09-15T06:47:27.080Z,99.9
2018-09-15T06:48:34.290Z,99.9
2018-09-15T06:49:41.504Z,99.9
2018-09-15T06:50:48.715Z,99.9
2018-09-15T06:51:55.932Z,99.9
2018-09-15T06:53:03.149Z,99.9
2018-09-15T06:54:10.360Z,99.9
2018-09-15T06:55:17.625Z,99.9
2018-09-15T06:56:24.916Z,99.9
2018-09-15T06:57:32.143Z,99.9
2018-09-15T06:58:39.359Z,99.9
2018-09-15T06:59:46.616Z,99.9
2018-09-15T07:00:53.858Z,99.9
2018-09-15T07:02:01.384Z,98.7
2018-09-15T07:03:08.599Z,99.9
2018-09-15T07:04:15.816Z,99.9
2018-09-15T07:05:23.030Z,99.9
2018-09-15T07:06:30.242Z,99.9
2018-09-15T07:07:37.454Z,99.9
2018-09-15T07:08:44.669Z,96.1
2018-09-15T07:09:51.886Z,99.9
2018-09-15T07:10:58.827Z,98.9
2018-09-15T07:12:06.039Z,94.3
2018-09-15T07:13:13.259Z,95.3
2018-09-15T07:14:20.474Z,93.4
2018-09-15T07:15:27.680Z,93.1
2018-09-15T07:16:34.613Z,86.7
2018-09-15T07:17:41.827Z,79.9
2018-09-15T07:18:49.037Z,81.3
2018-09-15T07:19:56.276Z,78.9
2018-09-15T07:21:03.554Z,79.4
2018-09-15T07:22:10.769Z,58.9
2018-09-15T07:23:17.980Z,60.9
2018-09-15T07:24:25.191Z,58.3
2018-09-15T07:25:32.405Z,57.8
2018-09-15T07:26:39.623Z,60.3
2018-09-15T07:27:46.836Z,51.7
2018-09-15T07:28:54.063Z,46
2018-09-15T07:30:01.273Z,50
2018-09-15T07:31:08.492Z,41.2
2018-09-15T07:32:15.537Z,44.5
2018-09-15T07:33:22.756Z,43.3
2018-09-15T07:34:29.966Z,45
2018-09-15T07:35:37.181Z,48.3
2018-09-15T07:36:44.400Z,42.2
2018-09-15T07:37:51.620Z,39.8
2018-09-15T07:38:58.839Z,38.9
2018-09-15T07:40:06.056Z,40.8
2018-09-15T07:41:13.280Z,40.9
2018-09-15T07:42:20.223Z,39
2018-09-15T07:43:27.161Z,44
2018-09-15T07:44:34.415Z,41
2018-09-15T07:45:41.661Z,34.9
2018-09-15T07:46:48.875Z,40
2018-09-15T07:47:56.098Z,36.7
2018-09-15T07:49:03.305Z,43.5
2018-09-15T07:50:10.528Z,39.6
2018-09-15T07:51:17.735Z,32.5
2018-09-15T07:52:24.876Z,32
2018-09-15T07:53:32.089Z,30.7
2018-09-15T07:54:39.319Z,29.5
2018-09-15T07:55:46.527Z,28.5
2018-09-15T07:56:53.470Z,26.2
2018-09-15T07:58:00.820Z,27.8
2018-09-15T07:59:08.621Z,26.9
2018-09-15T08:00:15.836Z,29.8
2018-09-15T08:01:23.044Z,28.2
2018-09-15T08:02:30.269Z,27.7
2018-09-15T08:03:37.485Z,32.7
2018-09-15T08:04:44.712Z,29.2
2018-09-15T08:05:51.936Z,29.4
2018-09-15T08:06:59.172Z,29.7
2018-09-15T08:08:06.387Z,33.3
2018-09-15T08:09:13.601Z,31.4
2018-09-15T08:10:20.815Z,30.5
2018-09-15T08:11:28.030Z,31
2018-09-15T08:12:35.249Z,30.2
2018-09-15T08:13:42.471Z,31
2018-09-15T08:14:49.689Z,30.4
2018-09-15T08:15:56.918Z,29.4
2018-09-15T08:17:03.864Z,30
2018-09-15T08:18:11.076Z,30.1
2018-09-15T08:19:18.290Z,33.9
2018-09-15T08:20:25.233Z,31.9
2018-09-15T08:21:32.179Z,32.3
2018-09-15T08:22:39.397Z,28.7
2018-09-15T08:23:46.626Z,25.8
2018-09-15T08:24:53.847Z,27.5
2018-09-15T08:26:01.064Z,26.6
2018-09-15T08:27:08.332Z,28.1
2018-09-15T08:28:15.600Z,26.1
2018-09-15T08:29:22.815Z,25.2
2018-09-15T08:30:30.037Z,22.4
2018-09-15T08:31:37.241Z,24.5
2018-09-15T08:32:44.463Z,24.2
2018-09-15T08:33:51.687Z,22.7
2018-09-15T08:34:58.900Z,21.7
2018-09-15T08:36:06.123Z,22.3
2018-09-15T08:37:13.340Z,20
2018-09-15T08:38:20.556Z,20.8
2018-09-15T08:39:27.819Z,21
2018-09-15T08:40:35.033Z,22.7
2018-09-15T08:41:42.297Z,22
2018-09-15T08:42:49.233Z,20.7
2018-09-15T08:43:56.447Z,19.5
2018-09-15T08:45:03.388Z,22.2
2018-09-15T08:46:10.605Z,21.9
2018-09-15T08:47:17.542Z,23.7
2018-09-15T08:48:24.857Z,24
2018-09-15T08:49:32.418Z,21.8
2018-09-15T08:50:39.630Z,20.2
2018-09-15T08:51:46.573Z,22
2018-09-15T08:52:53.247Z,20
2018-09-15T08:54:00.468Z,23.5
2018-09-15T08:55:07.137Z,21
2018-09-15T08:56:14.132Z,23.9
2018-09-15T08:57:21.653Z,22.4
2018-09-15T08:58:28.867Z,20.6
2018-09-15T08:59:35.805Z,19.9
2018-09-15T09:00:43.036Z,21.9
2018-09-15T09:01:50.255Z,18.4
2018-09-15T09:02:57.477Z,21.7
2018-09-15T09:04:04.699Z,20.1
2018-09-15T09:05:11.919Z,21.2
2018-09-15T09:06:19.138Z,18.2
2018-09-15T09:07:26.359Z,19.4
2018-09-15T09:08:33.582Z,17.4
2018-09-15T09:09:40.576Z,19.1
2018-09-15T09:10:47.794Z,19
2018-09-15T09:11:54.739Z,20.5
2018-09-15T09:13:01.955Z,20.3
2018-09-15T09:14:08.899Z,20.4
2018-09-15T09:15:16.125Z,21.1
2018-09-15T09:16:23.344Z,22.2
2018-09-15T09:17:30.560Z,24
2018-09-15T09:18:37.513Z,19.7
2018-09-15T09:19:44.738Z,20.3
2018-09-15T09:20:52.062Z,20.1
2018-09-15T09:21:59.291Z,17.8
2018-09-15T09:23:06.519Z,17.9
2018-09-15T09:24:13.469Z,15.1
2018-09-15T09:25:20.685Z,13.9
2018-09-15T09:26:28.084Z,16.1
2018-09-15T09:27:35.950Z,15.9
2018-09-15T09:28:43.164Z,16.1
2018-09-15T09:29:50.385Z,14.1
2018-09-15T09:30:57.615Z,17.4
2018-09-15T09:32:04.834Z,14.6
2018-09-15T09:33:12.110Z,14.4
2018-09-15T09:34:19.560Z,13.6
2018-09-15T09:35:26.775Z,14.5
2018-09-15T09:36:33.431Z,17
2018-09-15T09:37:40.652Z,16.3
2018-09-15T09:38:47.598Z,15.2
2018-09-15T09:39:54.834Z,14.7
2018-09-15T09:41:02.057Z,12.9
2018-09-15T09:42:09.287Z,13.6
2018-09-15T09:43:16.228Z,11.2
2018-09-15T09:44:23.446Z,12.9
2018-09-15T09:45:30.397Z,14.4
2018-09-15T09:46:37.649Z,14.9
2018-09-15T09:47:44.875Z,12.3
2018-09-15T09:48:52.020Z,14.3
2018-09-15T09:49:59.246Z,9.2
2018-09-15T09:51:06.472Z,13.4
2018-09-15T09:52:13.417Z,12.5
2018-09-15T09:53:20.386Z,12
2018-09-15T09:54:27.643Z,11.5
2018-09-15T09:55:34.583Z,12.1
2018-09-15T09:56:41.532Z,14
2018-09-15T09:57:48.752Z,13.9
2018-09-15T09:58:55.973Z,11.8
2018-09-15T10:00:03.192Z,12.4
2018-09-15T10:01:10.410Z,13.2
2018-09-15T10:02:17.754Z,12
2018-09-15T10:03:24.715Z,11.2
2018-09-15T10:04:31.941Z,11.4
2018-09-15T10:05:39.167Z,9.8
2018-09-15T10:06:46.397Z,8
2018-09-15T10:07:53.616Z,12
2018-09-15T10:09:00.561Z,8.9
2018-09-15T10:10:07.858Z,9.2
2018-09-15T10:11:14.806Z,11.4
2018-09-15T10:12:22.029Z,8.8
2018-09-15T10:13:29.247Z,10.7
2018-09-15T10:14:36.464Z,7.5
2018-09-15T10:15:43.692Z,9.1
2018-09-15T10:16:50.367Z,8
2018-09-15T10:17:57.583Z,8.6
2018-09-15T10:19:04.804Z,6.2
2018-09-15T10:20:12.026Z,6.4
2018-09-15T10:21:19.249Z,4.8
2018-09-15T10:22:26.489Z,6.3
2018-09-15T10:23:33.445Z,6.6
2018-09-15T10:24:40.398Z,7.2
2018-09-15T10:25:47.621Z,7.5
2018-09-15T10:26:54.846Z,5.8
2018-09-15T10:28:02.065Z,8.2
2018-09-15T10:29:09.291Z,9.9
2018-09-15T10:30:16.239Z,9.4
2018-09-15T10:31:23.179Z,9.7
2018-09-15T10:32:30.399Z,11.1
2018-09-15T10:33:37.620Z,8.1
2018-09-15T10:34:44.863Z,8.5
2018-09-15T10:35:52.080Z,8.6
2018-09-15T10:36:59.309Z,9.3
2018-09-15T10:38:06.528Z,9.8
2018-09-15T10:39:13.744Z,10.1
2018-09-15T10:40:20.782Z,9.8
2018-09-15T10:41:28.295Z,8.6
2018-09-15T10:42:35.513Z,10.6
2018-09-15T10:43:42.732Z,9.4
2018-09-15T10:44:49.956Z,8.8
2018-09-15T10:45:57.240Z,7.8
2018-09-15T10:47:04.613Z,8.7
2018-09-15T10:48:11.823Z,9.1
2018-09-15T10:49:19.045Z,9
2018-09-15T10:50:26.272Z,11.1
2018-09-15T10:51:33.221Z,10
2018-09-15T10:52:40.448Z,9.7
2018-09-15T10:53:47.397Z,10.6
2018-09-15T10:54:54.630Z,7.9
2018-09-15T10:56:01.589Z,7.7
2018-09-15T10:57:08.809Z,9.4
2018-09-15T10:58:15.756Z,4.9
2018-09-15T10:59:22.977Z,6.8
2018-09-15T11:00:30.343Z,6.8
2018-09-15T11:01:38.011Z,6.6
2018-09-15T11:02:45.246Z,7.2
2018-09-15T11:03:52.470Z,8.3
2018-09-15T11:04:59.428Z,3.9
2018-09-15T11:06:06.651Z,6.5
2018-09-15T11:07:13.869Z,4
2018-09-15T11:08:21.088Z,4.1
2018-09-15T11:09:28.309Z,4.2
2018-09-15T11:10:35.542Z,1
2018-09-15T11:11:42.761Z,1
2018-09-15T11:12:49.982Z,1
2018-09-15T11:13:57.209Z,4.4
2018-09-15T11:15:04.432Z,3.7
2018-09-15T11:16:11.648Z,1
2018-09-15T11:17:19.082Z,1.8
2018-09-15T11:18:26.306Z,1
2018-09-15T11:19:33.536Z,2.3
2018-09-15T11:20:40.769Z,1
2018-09-15T11:21:47.984Z,1
2018-09-15T11:22:55.312Z,1
2018-09-15T11:24:02.783Z,1
2018-09-15T11:25:10.002Z,2.4
2018-09-15T11:26:16.950Z,3.4
2018-09-15T11:27:24.169Z,5.3
2018-09-15T11:28:31.446Z,4.8
2018-09-15T11:29:38.843Z,5.1
2018-09-15T11:30:46.061Z,7
2018-09-15T11:31:53.284Z,6.2
2018-09-15T11:33:00.513Z,3.9
2018-09-15T11:34:07.812Z,5.6
2018-09-15T11:35:15.219Z,7.2
2018-09-15T11:36:22.426Z,7.4
2018-09-15T11:37:29.650Z,4.5
2018-09-15T11:38:36.888Z,5.5
2018-09-15T11:39:43.835Z,3.9
2018-09-15T11:40:51.060Z,3.5
2018-09-15T11:41:58.296Z,5.5
2018-09-15T11:43:05.528Z,5.2
2018-09-15T11:44:12.747Z,3.8
2018-09-15T11:45:19.987Z,6.1
2018-09-15T11:46:27.196Z,4.8
2018-09-15T11:47:34.446Z,7.8
2018-09-15T11:48:41.670Z,6.3
2018-09-15T11:49:48.896Z,7.6
2018-09-15T11:50:56.120Z,7.3
2018-09-15T11:52:03.342Z,7.9
2018-09-15T11:53:10.577Z,8.5
2018-09-15T11:54:17.789Z,7.7
2018-09-15T11:55:24.740Z,5.3
2018-09-15T11:56:31.693Z,8.5
2018-09-15T11:57:38.915Z,6.7
2018-09-15T11:58:46.160Z,6.1
2018-09-15T11:59:53.432Z,6.1
2018-09-15T12:01:00.777Z,5.2
2018-09-15T12:02:08.090Z,2.3
2018-09-15T12:03:15.927Z,1.4
2018-09-15T12:04:23.151Z,3.3
2018-09-15T12:05:30.093Z,1.6
2018-09-15T12:06:37.315Z,1.8
2018-09-15T12:07:44.608Z,2.9
2018-09-15T12:08:52.020Z,5.3
2018-09-15T12:09:58.964Z,3.8
2018-09-15T12:11:05.645Z,4.8
2018-09-15T12:12:12.866Z,5.4
2018-09-15T12:13:20.089Z,6.2
2018-09-15T12:14:27.036Z,5.9
2018-09-15T12:15:34.256Z,5.9
2018-09-15T12:16:41.470Z,5.3
2018-09-15T12:17:48.702Z,6.6
2018-09-15T12:18:55.928Z,5.2
2018-09-15T12:20:03.141Z,5
2018-09-15T12:21:10.364Z,3.8
2018-09-15T12:22:17.826Z,3.7
2018-09-15T12:23:25.136Z,1
2018-09-15T12:24:32.364Z,1.5
2018-09-15T12:25:39.581Z,1
2018-09-15T12:26:46.798Z,1
2018-09-15T12:27:53.862Z,1
2018-09-15T12:29:01.263Z,1
2018-09-15T12:30:08.489Z,1
2018-09-15T12:31:15.715Z,1
2018-09-15T12:32:22.934Z,2.6
2018-09-15T12:33:30.257Z,1.8
2018-09-15T12:34:37.749Z,1.8
2018-09-15T12:35:44.964Z,2.3
2018-09-15T12:36:52.194Z,1
2018-09-15T12:37:59.413Z,1
2018-09-15T12:39:06.631Z,1
2018-09-15T12:40:13.849Z,1
2018-09-15T12:41:20.799Z,1
2018-09-15T12:42:28.028Z,1
2018-09-15T12:43:35.250Z,1
2018-09-15T12:44:42.471Z,1
2018-09-15T12:45:49.690Z,1
2018-09-15T12:46:56.634Z,1
2018-09-15T12:48:03.859Z,1
2018-09-15T12:49:11.065Z,1
2018-09-15T12:50:18.011Z,1
2018-09-15T12:51:24.971Z,1
2018-09-15T12:52:32.191Z,1
2018-09-15T12:53:39.415Z,1
2018-09-15T12:54:46.640Z,1
2018-09-15T12:55:53.860Z,1
2018-09-15T12:57:01.082Z,1
2018-09-15T12:58:08.309Z,1
2018-09-15T12:59:15.529Z,1
2018-09-15T13:00:22.753Z,1
2018-09-15T13:01:29.978Z,1
2018-09-15T13:02:37.202Z,1
2018-09-15T13:03:44.154Z,1
2018-09-15T13:04:51.376Z,1
2018-09-15T13:05:58.599Z,1
2018-09-15T13:07:05.814Z,1
2018-09-15T13:08:13.034Z,1
2018-09-15T13:09:20.256Z,1
2018-09-15T13:10:27.209Z,1
2018-09-15T13:11:34.427Z,1
2018-09-15T13:12:41.651Z,1
2018-09-15T13:13:48.883Z,1
2018-09-15T13:14:56.100Z,1
2018-09-15T13:16:03.053Z,1
2018-09-15T13:17:10.322Z,1
2018-09-15T13:18:17.543Z,1
2018-09-15T13:19:24.760Z,1
2018-09-15T13:20:31.980Z,1
2018-09-15T13:21:39.205Z,1
2018-09-15T13:22:46.428Z,1
2018-09-15T13:23:53.650Z,1
2018-09-15T13:25:00.871Z,1
2018-09-15T13:26:08.089Z,1
2018-09-15T13:27:15.313Z,1
2018-09-15T13:28:22.542Z,1
2018-09-15T13:29:29.855Z,1
2018-09-15T13:30:37.350Z,1
2018-09-15T13:31:44.573Z,1
2018-09-15T13:32:51.793Z,1
2018-09-15T13:33:59.023Z,1
2018-09-15T13:35:06.243Z,1
2018-09-15T13:36:13.470Z,1
2018-09-15T13:37:20.694Z,1
2018-09-15T13:38:27.912Z,1
2018-09-15T13:39:35.141Z,1
2018-09-15T13:40:42.361Z,1
2018-09-15T13:41:49.576Z,1
2018-09-15T13:42:56.529Z,1
2018-09-15T13:44:03.751Z,1
2018-09-15T13:45:10.963Z,1
2018-09-15T13:46:18.189Z,1
2018-09-15T13:47:25.412Z,1
2018-09-15T13:48:32.634Z,1
2018-09-15T13:49:39.857Z,1
2018-09-15T13:50:47.081Z,1
2018-09-15T13:51:54.300Z,1
2018-09-15T13:53:01.529Z,1
2018-09-15T13:54:08.471Z,1
2018-09-15T13:55:15.694Z,1
2018-09-15T13:56:22.949Z,1
2018-09-15T13:57:30.153Z,1
2018-09-15T13:58:37.376Z,1
2018-09-15T13:59:44.595Z,1
2018-09-15T14:00:51.817Z,1
2018-09-15T14:01:59.036Z,1
2018-09-15T14:03:06.257Z,1
2018-09-15T14:04:13.241Z,1
2018-09-15T14:05:20.511Z,1
2018-09-15T14:06:27.796Z,1
2018-09-15T14:07:35.018Z,1
2018-09-15T14:08:42.247Z,1
2018-09-15T14:09:49.469Z,1
2018-09-15T14:10:56.738Z,1
2018-09-15T14:12:04.165Z,1
2018-09-15T14:13:11.379Z,1
2018-09-15T14:14:18.605Z,1
2018-09-15T14:15:25.830Z,1
2018-09-15T14:16:33.118Z,1
2018-09-15T14:17:40.488Z,1
2018-09-15T14:18:47.715Z,1
2018-09-15T14:19:54.946Z,1
2018-09-15T14:21:02.172Z,1
2018-09-15T14:22:09.162Z,1
2018-09-15T14:23:16.625Z,1
2018-09-15T14:24:23.846Z,1
2018-09-15T14:25:31.069Z,1
2018-09-15T14:26:38.288Z,1
2018-09-15T14:27:45.512Z,1
2018-09-15T14:28:52.462Z,1
2018-09-15T14:29:59.411Z,1
2018-09-15T14:31:06.634Z,1
2018-09-15T14:32:13.862Z,1
2018-09-15T14:33:21.070Z,1
2018-09-15T14:34:28.299Z,1
2018-09-15T14:35:35.547Z,1
2018-09-15T14:36:42.771Z,1
2018-09-15T14:37:49.993Z,1
2018-09-15T14:38:57.216Z,1
2018-09-15T14:40:04.436Z,1
2018-09-15T14:41:11.657Z,1
2018-09-15T14:42:18.886Z,1
2018-09-15T14:43:26.112Z,1
2018-09-15T14:44:33.331Z,1
2018-09-15T14:45:40.571Z,1
2018-09-15T14:46:47.793Z,1
2018-09-15T14:47:54.470Z,1
2018-09-15T14:49:01.448Z,1
2018-09-15T14:50:08.696Z,1
2018-09-15T14:51:16.090Z,1
2018-09-15T14:52:23.311Z,1
2018-09-15T14:53:30.528Z,1
2018-09-15T14:54:37.753Z,1
2018-09-15T14:55:44.982Z,1
2018-09-15T14:56:52.207Z,1
2018-09-15T14:57:59.450Z,1
2018-09-15T14:59:06.675Z,1
2018-09-15T15:00:13.915Z,1
2018-09-15T15:01:21.138Z,1
2018-09-15T15:02:27.813Z,1
2018-09-15T15:03:35.040Z,1
2018-09-15T15:04:42.259Z,1
2018-09-15T15:05:49.478Z,1
2018-09-15T15:06:56.700Z,1
2018-09-15T15:08:03.920Z,1
2018-09-15T15:09:11.139Z,1
2018-09-15T15:10:18.369Z,1
2018-09-15T15:11:25.591Z,1
2018-09-15T15:12:32.813Z,1
2018-09-15T15:13:40.130Z,1
2018-09-15T15:14:47.630Z,1
2018-09-15T15:15:54.853Z,1
2018-09-15T15:17:02.075Z,1
2018-09-15T15:18:09.308Z,1
2018-09-15T15:19:16.529Z,1